sensor_id;sensor_type;location;lat;lon;timestamp;P1;durP1;ratioP1;P2;durP2;ratioP2
44116;SDS011;29781;49.480;8.512;2023-06-19T00:00:06;13.15;;;8.85;;
44116;SDS011;29781;49.480;8.512;2023-06-19T00:02:37;9.85;;;8.27;;
44116;SDS011;29781;49.480;8.512;2023-06-19T00:05:04;11.15;;;8.23;;
44116;SDS011;29781;49.480;8.512;2023-06-19T00:07:30;9.50;;;8.57;;
44116;SDS011;29781;49.480;8.512;2023-06-19T00:09:55;18.08;;;9.02;;
44116;SDS011;29781;49.480;8.512;2023-06-19T00:12:21;12.50;;;9.07;;
44116;SDS011;29781;49.480;8.512;2023-06-19T00:14:46;11.82;;;8.85;;
44116;SDS011;29781;49.480;8.512;2023-06-19T00:17:12;13.57;;;8.90;;
44116;SDS011;29781;49.480;8.512;2023-06-19T00:19:41;14.52;;;9.32;;
44116;SDS011;29781;49.480;8.512;2023-06-19T00:22:07;10.52;;;8.73;;
44116;SDS011;29781;49.480;8.512;2023-06-19T00:24:33;9.95;;;8.95;;
44116;SDS011;29781;49.480;8.512;2023-06-19T00:26:58;12.18;;;8.80;;
44116;SDS011;29781;49.480;8.512;2023-06-19T00:29:28;11.73;;;8.90;;
44116;SDS011;29781;49.480;8.512;2023-06-19T00:31:54;13.25;;;9.05;;
44116;SDS011;29781;49.480;8.512;2023-06-19T00:34:19;14.13;;;9.52;;
44116;SDS011;29781;49.480;8.512;2023-06-19T00:36:45;10.40;;;9.23;;
44116;SDS011;29781;49.480;8.512;2023-06-19T00:39:11;10.90;;;9.25;;
44116;SDS011;29781;49.480;8.512;2023-06-19T00:41:37;10.95;;;9.07;;
44116;SDS011;29781;49.480;8.512;2023-06-19T00:44:03;11.43;;;9.38;;
44116;SDS011;29781;49.480;8.512;2023-06-19T00:46:28;15.55;;;9.38;;
44116;SDS011;29781;49.480;8.512;2023-06-19T00:48:55;10.07;;;9.18;;
44116;SDS011;29781;49.480;8.512;2023-06-19T00:51:20;10.65;;;9.52;;
44116;SDS011;29781;49.480;8.512;2023-06-19T00:53:46;9.95;;;9.02;;
44116;SDS011;29781;49.480;8.512;2023-06-19T00:56:12;11.13;;;9.15;;
44116;SDS011;29781;49.480;8.512;2023-06-19T00:58:38;10.00;;;9.10;;
44116;SDS011;29781;49.480;8.512;2023-06-19T01:01:03;14.80;;;9.38;;
44116;SDS011;29781;49.480;8.512;2023-06-19T01:03:30;15.13;;;10.10;;
44116;SDS011;29781;49.480;8.512;2023-06-19T01:05:55;13.13;;;10.05;;
44116;SDS011;29781;49.480;8.512;2023-06-19T01:10:53;12.85;;;11.57;;
44116;SDS011;29781;49.480;8.512;2023-06-19T01:13:22;15.73;;;12.27;;
44116;SDS011;29781;49.480;8.512;2023-06-19T01:16:11;15.55;;;12.05;;
44116;SDS011;29781;49.480;8.512;2023-06-19T01:18:37;14.50;;;11.50;;
44116;SDS011;29781;49.480;8.512;2023-06-19T01:21:12;12.02;;;10.13;;
44116;SDS011;29781;49.480;8.512;2023-06-19T01:23:40;14.40;;;10.50;;
44116;SDS011;29781;49.480;8.512;2023-06-19T01:26:06;11.32;;;10.23;;
44116;SDS011;29781;49.480;8.512;2023-06-19T01:28:32;12.73;;;9.52;;
44116;SDS011;29781;49.480;8.512;2023-06-19T01:30:59;17.40;;;9.48;;
44116;SDS011;29781;49.480;8.512;2023-06-19T01:33:27;14.98;;;9.90;;
44116;SDS011;29781;49.480;8.512;2023-06-19T01:35:53;9.85;;;8.95;;
44116;SDS011;29781;49.480;8.512;2023-06-19T01:38:21;13.98;;;9.45;;
44116;SDS011;29781;49.480;8.512;2023-06-19T01:40:50;11.65;;;9.23;;
44116;SDS011;29781;49.480;8.512;2023-06-19T01:43:19;9.68;;;8.75;;
44116;SDS011;29781;49.480;8.512;2023-06-19T01:45:45;11.10;;;8.75;;
44116;SDS011;29781;49.480;8.512;2023-06-19T01:48:11;9.88;;;8.30;;
44116;SDS011;29781;49.480;8.512;2023-06-19T01:50:37;8.85;;;8.05;;
44116;SDS011;29781;49.480;8.512;2023-06-19T01:53:03;10.45;;;8.07;;
44116;SDS011;29781;49.480;8.512;2023-06-19T01:55:28;9.18;;;8.00;;
44116;SDS011;29781;49.480;8.512;2023-06-19T01:57:54;8.85;;;7.28;;
44116;SDS011;29781;49.480;8.512;2023-06-19T02:00:19;10.40;;;7.03;;
44116;SDS011;29781;49.480;8.512;2023-06-19T02:02:45;8.60;;;6.60;;
44116;SDS011;29781;49.480;8.512;2023-06-19T02:05:10;6.28;;;5.68;;
44116;SDS011;29781;49.480;8.512;2023-06-19T02:07:36;7.45;;;6.35;;
44116;SDS011;29781;49.480;8.512;2023-06-19T02:10:02;7.88;;;7.07;;
44116;SDS011;29781;49.480;8.512;2023-06-19T02:12:27;8.65;;;7.82;;
44116;SDS011;29781;49.480;8.512;2023-06-19T02:14:53;9.20;;;8.30;;
44116;SDS011;29781;49.480;8.512;2023-06-19T02:17:18;14.85;;;8.38;;
44116;SDS011;29781;49.480;8.512;2023-06-19T02:19:44;8.80;;;7.40;;
44116;SDS011;29781;49.480;8.512;2023-06-19T02:22:09;8.68;;;7.95;;
44116;SDS011;29781;49.480;8.512;2023-06-19T02:24:35;8.63;;;7.82;;
44116;SDS011;29781;49.480;8.512;2023-06-19T02:27:02;10.75;;;8.05;;
44116;SDS011;29781;49.480;8.512;2023-06-19T02:29:27;9.18;;;7.45;;
44116;SDS011;29781;49.480;8.512;2023-06-19T02:31:54;8.00;;;6.78;;
44116;SDS011;29781;49.480;8.512;2023-06-19T02:34:20;9.65;;;7.53;;
44116;SDS011;29781;49.480;8.512;2023-06-19T02:36:49;7.43;;;6.50;;
44116;SDS011;29781;49.480;8.512;2023-06-19T02:39:14;9.73;;;7.30;;
44116;SDS011;29781;49.480;8.512;2023-06-19T02:41:40;10.38;;;6.70;;
44116;SDS011;29781;49.480;8.512;2023-06-19T02:44:10;7.63;;;6.93;;
44116;SDS011;29781;49.480;8.512;2023-06-19T02:46:39;6.70;;;6.10;;
44116;SDS011;29781;49.480;8.512;2023-06-19T02:49:04;6.60;;;5.97;;
44116;SDS011;29781;49.480;8.512;2023-06-19T02:51:29;10.35;;;6.43;;
44116;SDS011;29781;49.480;8.512;2023-06-19T02:53:55;6.30;;;5.20;;
44116;SDS011;29781;49.480;8.512;2023-06-19T02:56:21;6.28;;;5.45;;
44116;SDS011;29781;49.480;8.512;2023-06-19T02:58:47;5.82;;;5.43;;
44116;SDS011;29781;49.480;8.512;2023-06-19T03:01:12;5.63;;;4.93;;
44116;SDS011;29781;49.480;8.512;2023-06-19T03:03:38;5.40;;;4.88;;
44116;SDS011;29781;49.480;8.512;2023-06-19T03:06:06;5.57;;;5.07;;
44116;SDS011;29781;49.480;8.512;2023-06-19T03:08:36;5.90;;;5.35;;
44116;SDS011;29781;49.480;8.512;2023-06-19T03:11:02;5.57;;;5.07;;
44116;SDS011;29781;49.480;8.512;2023-06-19T03:13:33;5.63;;;5.03;;
44116;SDS011;29781;49.480;8.512;2023-06-19T03:16:08;5.25;;;4.65;;
44116;SDS011;29781;49.480;8.512;2023-06-19T03:18:34;6.93;;;5.10;;
44116;SDS011;29781;49.480;8.512;2023-06-19T03:20:59;10.85;;;5.28;;
44116;SDS011;29781;49.480;8.512;2023-06-19T03:23:25;5.03;;;4.57;;
44116;SDS011;29781;49.480;8.512;2023-06-19T03:25:50;5.32;;;4.85;;
44116;SDS011;29781;49.480;8.512;2023-06-19T03:28:16;6.63;;;5.43;;
44116;SDS011;29781;49.480;8.512;2023-06-19T03:30:41;6.07;;;4.65;;
44116;SDS011;29781;49.480;8.512;2023-06-19T03:33:06;5.75;;;4.88;;
44116;SDS011;29781;49.480;8.512;2023-06-19T03:35:32;5.68;;;4.57;;
44116;SDS011;29781;49.480;8.512;2023-06-19T03:37:57;4.68;;;3.80;;
44116;SDS011;29781;49.480;8.512;2023-06-19T03:40:23;4.50;;;4.20;;
44116;SDS011;29781;49.480;8.512;2023-06-19T03:42:49;5.13;;;3.97;;
44116;SDS011;29781;49.480;8.512;2023-06-19T03:45:14;6.80;;;3.95;;
44116;SDS011;29781;49.480;8.512;2023-06-19T03:47:40;5.38;;;3.50;;
44116;SDS011;29781;49.480;8.512;2023-06-19T03:50:05;5.88;;;3.75;;
44116;SDS011;29781;49.480;8.512;2023-06-19T03:52:34;4.20;;;3.58;;
44116;SDS011;29781;49.480;8.512;2023-06-19T03:55:01;4.38;;;3.58;;
44116;SDS011;29781;49.480;8.512;2023-06-19T03:57:27;6.63;;;3.60;;
44116;SDS011;29781;49.480;8.512;2023-06-19T03:59:53;5.20;;;3.42;;
44116;SDS011;29781;49.480;8.512;2023-06-19T04:02:18;3.72;;;3.30;;
44116;SDS011;29781;49.480;8.512;2023-06-19T04:04:44;4.93;;;3.55;;
44116;SDS011;29781;49.480;8.512;2023-06-19T04:07:09;3.55;;;3.25;;
44116;SDS011;29781;49.480;8.512;2023-06-19T04:09:35;6.13;;;3.47;;
44116;SDS011;29781;49.480;8.512;2023-06-19T04:12:01;4.00;;;3.60;;
44116;SDS011;29781;49.480;8.512;2023-06-19T04:14:26;3.65;;;3.30;;
44116;SDS011;29781;49.480;8.512;2023-06-19T04:16:52;4.68;;;3.38;;
44116;SDS011;29781;49.480;8.512;2023-06-19T04:19:17;4.10;;;3.80;;
44116;SDS011;29781;49.480;8.512;2023-06-19T04:21:43;3.95;;;3.55;;
44116;SDS011;29781;49.480;8.512;2023-06-19T04:24:08;3.83;;;3.40;;
44116;SDS011;29781;49.480;8.512;2023-06-19T04:26:34;3.95;;;3.40;;
44116;SDS011;29781;49.480;8.512;2023-06-19T04:29:01;5.38;;;3.28;;
44116;SDS011;29781;49.480;8.512;2023-06-19T04:31:27;4.03;;;3.55;;
44116;SDS011;29781;49.480;8.512;2023-06-19T04:33:53;4.63;;;3.40;;
44116;SDS011;29781;49.480;8.512;2023-06-19T04:36:21;5.28;;;3.92;;
44116;SDS011;29781;49.480;8.512;2023-06-19T04:38:47;3.88;;;3.53;;
44116;SDS011;29781;49.480;8.512;2023-06-19T04:41:13;3.92;;;3.53;;
44116;SDS011;29781;49.480;8.512;2023-06-19T04:43:38;3.85;;;3.30;;
44116;SDS011;29781;49.480;8.512;2023-06-19T04:46:06;4.22;;;3.30;;
44116;SDS011;29781;49.480;8.512;2023-06-19T04:48:32;4.82;;;3.30;;
44116;SDS011;29781;49.480;8.512;2023-06-19T04:51:00;3.45;;;3.00;;
44116;SDS011;29781;49.480;8.512;2023-06-19T04:53:26;5.07;;;3.33;;
44116;SDS011;29781;49.480;8.512;2023-06-19T04:55:52;4.07;;;2.90;;
44116;SDS011;29781;49.480;8.512;2023-06-19T04:58:20;3.40;;;3.10;;
44116;SDS011;29781;49.480;8.512;2023-06-19T05:00:46;6.00;;;2.78;;
44116;SDS011;29781;49.480;8.512;2023-06-19T05:03:16;3.08;;;2.88;;
44116;SDS011;29781;49.480;8.512;2023-06-19T05:05:42;3.40;;;3.10;;
44116;SDS011;29781;49.480;8.512;2023-06-19T05:08:08;7.18;;;2.95;;
44116;SDS011;29781;49.480;8.512;2023-06-19T05:10:34;3.03;;;2.58;;
44116;SDS011;29781;49.480;8.512;2023-06-19T05:13:00;4.93;;;2.90;;
44116;SDS011;29781;49.480;8.512;2023-06-19T05:15:26;4.35;;;2.97;;
44116;SDS011;29781;49.480;8.512;2023-06-19T05:17:52;3.28;;;2.97;;
44116;SDS011;29781;49.480;8.512;2023-06-19T05:20:18;2.85;;;2.63;;
44116;SDS011;29781;49.480;8.512;2023-06-19T05:22:43;3.33;;;2.78;;
44116;SDS011;29781;49.480;8.512;2023-06-19T05:25:09;2.90;;;2.70;;
44116;SDS011;29781;49.480;8.512;2023-06-19T05:27:34;6.25;;;3.03;;
44116;SDS011;29781;49.480;8.512;2023-06-19T05:30:00;3.60;;;2.95;;
44116;SDS011;29781;49.480;8.512;2023-06-19T05:32:25;3.40;;;3.10;;
44116;SDS011;29781;49.480;8.512;2023-06-19T05:34:51;3.35;;;3.05;;
44116;SDS011;29781;49.480;8.512;2023-06-19T05:37:16;2.92;;;2.72;;
44116;SDS011;29781;49.480;8.512;2023-06-19T05:39:42;3.97;;;3.00;;
44116;SDS011;29781;49.480;8.512;2023-06-19T05:42:07;3.88;;;3.15;;
44116;SDS011;29781;49.480;8.512;2023-06-19T05:44:33;3.70;;;2.90;;
44116;SDS011;29781;49.480;8.512;2023-06-19T05:46:59;5.15;;;3.30;;
44116;SDS011;29781;49.480;8.512;2023-06-19T05:49:24;3.30;;;2.97;;
44116;SDS011;29781;49.480;8.512;2023-06-19T05:51:50;6.22;;;3.15;;
44116;SDS011;29781;49.480;8.512;2023-06-19T05:54:15;4.15;;;3.30;;
44116;SDS011;29781;49.480;8.512;2023-06-19T05:56:42;4.45;;;3.10;;
44116;SDS011;29781;49.480;8.512;2023-06-19T05:59:08;7.38;;;3.05;;
44116;SDS011;29781;49.480;8.512;2023-06-19T06:01:33;5.63;;;2.97;;
44116;SDS011;29781;49.480;8.512;2023-06-19T06:03:59;6.90;;;3.47;;
44116;SDS011;29781;49.480;8.512;2023-06-19T06:06:27;3.42;;;2.90;;
44116;SDS011;29781;49.480;8.512;2023-06-19T06:08:53;3.20;;;2.75;;
44116;SDS011;29781;49.480;8.512;2023-06-19T06:11:19;3.15;;;2.90;;
44116;SDS011;29781;49.480;8.512;2023-06-19T06:13:47;3.58;;;3.28;;
44116;SDS011;29781;49.480;8.512;2023-06-19T06:16:12;4.07;;;3.28;;
44116;SDS011;29781;49.480;8.512;2023-06-19T06:18:39;4.40;;;3.38;;
44116;SDS011;29781;49.480;8.512;2023-06-19T06:21:04;5.53;;;3.45;;
44116;SDS011;29781;49.480;8.512;2023-06-19T06:23:30;3.60;;;3.30;;
44116;SDS011;29781;49.480;8.512;2023-06-19T06:25:55;4.25;;;3.17;;
44116;SDS011;29781;49.480;8.512;2023-06-19T06:28:26;4.13;;;3.80;;
44116;SDS011;29781;49.480;8.512;2023-06-19T06:30:52;4.00;;;3.70;;
44116;SDS011;29781;49.480;8.512;2023-06-19T06:33:17;4.32;;;3.50;;
44116;SDS011;29781;49.480;8.512;2023-06-19T06:35:43;4.80;;;4.30;;
44116;SDS011;29781;49.480;8.512;2023-06-19T06:38:09;4.70;;;4.30;;
44116;SDS011;29781;49.480;8.512;2023-06-19T06:40:34;5.57;;;4.35;;
44116;SDS011;29781;49.480;8.512;2023-06-19T06:43:00;6.88;;;4.13;;
44116;SDS011;29781;49.480;8.512;2023-06-19T06:45:25;4.50;;;4.10;;
44116;SDS011;29781;49.480;8.512;2023-06-19T06:47:51;4.25;;;3.85;;
44116;SDS011;29781;49.480;8.512;2023-06-19T06:50:16;5.32;;;4.28;;
44116;SDS011;29781;49.480;8.512;2023-06-19T06:52:42;4.88;;;4.47;;
44116;SDS011;29781;49.480;8.512;2023-06-19T06:55:07;4.78;;;4.38;;
44116;SDS011;29781;49.480;8.512;2023-06-19T06:57:34;5.25;;;4.75;;
44116;SDS011;29781;49.480;8.512;2023-06-19T07:00:00;5.50;;;4.07;;
44116;SDS011;29781;49.480;8.512;2023-06-19T07:02:25;5.28;;;4.35;;
44116;SDS011;29781;49.480;8.512;2023-06-19T07:04:51;5.00;;;4.25;;
44116;SDS011;29781;49.480;8.512;2023-06-19T07:07:17;5.10;;;4.60;;
44116;SDS011;29781;49.480;8.512;2023-06-19T07:09:42;4.82;;;4.45;;
44116;SDS011;29781;49.480;8.512;2023-06-19T07:12:08;7.00;;;5.25;;
44116;SDS011;29781;49.480;8.512;2023-06-19T07:14:33;5.38;;;4.80;;
44116;SDS011;29781;49.480;8.512;2023-06-19T07:16:59;5.55;;;5.05;;
44116;SDS011;29781;49.480;8.512;2023-06-19T07:19:24;5.80;;;5.20;;
44116;SDS011;29781;49.480;8.512;2023-06-19T07:21:50;6.10;;;5.50;;
44116;SDS011;29781;49.480;8.512;2023-06-19T07:24:16;5.40;;;4.60;;
44116;SDS011;29781;49.480;8.512;2023-06-19T07:26:42;10.35;;;5.00;;
44116;SDS011;29781;49.480;8.512;2023-06-19T07:29:07;6.10;;;5.47;;
44116;SDS011;29781;49.480;8.512;2023-06-19T07:31:33;8.50;;;5.18;;
44116;SDS011;29781;49.480;8.512;2023-06-19T07:33:58;5.97;;;5.38;;
44116;SDS011;29781;49.480;8.512;2023-06-19T07:36:24;5.75;;;5.25;;
44116;SDS011;29781;49.480;8.512;2023-06-19T07:38:49;6.95;;;5.30;;
44116;SDS011;29781;49.480;8.512;2023-06-19T07:41:15;8.88;;;6.05;;
44116;SDS011;29781;49.480;8.512;2023-06-19T07:43:40;6.60;;;5.72;;
44116;SDS011;29781;49.480;8.512;2023-06-19T07:46:06;7.50;;;5.65;;
44116;SDS011;29781;49.480;8.512;2023-06-19T07:48:31;7.07;;;5.63;;
44116;SDS011;29781;49.480;8.512;2023-06-19T07:50:57;7.45;;;5.93;;
44116;SDS011;29781;49.480;8.512;2023-06-19T07:53:23;6.05;;;5.50;;
44116;SDS011;29781;49.480;8.512;2023-06-19T07:55:48;6.50;;;5.78;;
44116;SDS011;29781;49.480;8.512;2023-06-19T07:58:14;6.90;;;6.20;;
44116;SDS011;29781;49.480;8.512;2023-06-19T08:00:40;8.18;;;6.55;;
44116;SDS011;29781;49.480;8.512;2023-06-19T08:03:05;7.38;;;6.18;;
44116;SDS011;29781;49.480;8.512;2023-06-19T08:05:31;7.28;;;6.10;;
44116;SDS011;29781;49.480;8.512;2023-06-19T08:07:58;7.78;;;6.22;;
44116;SDS011;29781;49.480;8.512;2023-06-19T08:10:24;9.02;;;6.35;;
44116;SDS011;29781;49.480;8.512;2023-06-19T08:12:49;6.90;;;6.20;;
44116;SDS011;29781;49.480;8.512;2023-06-19T08:15:15;7.63;;;5.82;;
44116;SDS011;29781;49.480;8.512;2023-06-19T08:17:41;6.70;;;5.95;;
44116;SDS011;29781;49.480;8.512;2023-06-19T08:20:07;6.68;;;6.00;;
44116;SDS011;29781;49.480;8.512;2023-06-19T08:22:34;7.95;;;6.18;;
44116;SDS011;29781;49.480;8.512;2023-06-19T08:25:00;11.50;;;6.78;;
44116;SDS011;29781;49.480;8.512;2023-06-19T08:27:25;6.93;;;5.60;;
44116;SDS011;29781;49.480;8.512;2023-06-19T08:29:54;8.75;;;5.72;;
44116;SDS011;29781;49.480;8.512;2023-06-19T08:32:20;7.18;;;6.13;;
44116;SDS011;29781;49.480;8.512;2023-06-19T08:34:45;6.78;;;6.28;;
44116;SDS011;29781;49.480;8.512;2023-06-19T08:37:11;8.00;;;6.35;;
44116;SDS011;29781;49.480;8.512;2023-06-19T08:39:36;6.40;;;5.82;;
44116;SDS011;29781;49.480;8.512;2023-06-19T08:42:13;7.75;;;6.30;;
44116;SDS011;29781;49.480;8.512;2023-06-19T08:44:38;6.32;;;5.53;;
44116;SDS011;29781;49.480;8.512;2023-06-19T08:47:04;6.57;;;5.78;;
44116;SDS011;29781;49.480;8.512;2023-06-19T08:49:30;6.38;;;5.82;;
44116;SDS011;29781;49.480;8.512;2023-06-19T08:51:58;7.55;;;6.25;;
44116;SDS011;29781;49.480;8.512;2023-06-19T08:54:24;6.28;;;5.72;;
44116;SDS011;29781;49.480;8.512;2023-06-19T08:56:50;6.35;;;5.75;;
44116;SDS011;29781;49.480;8.512;2023-06-19T08:59:18;6.90;;;5.75;;
44116;SDS011;29781;49.480;8.512;2023-06-19T09:01:48;11.95;;;6.28;;
44116;SDS011;29781;49.480;8.512;2023-06-19T09:04:17;6.53;;;5.90;;
44116;SDS011;29781;49.480;8.512;2023-06-19T09:06:47;7.53;;;5.53;;
44116;SDS011;29781;49.480;8.512;2023-06-19T09:09:17;6.05;;;5.50;;
44116;SDS011;29781;49.480;8.512;2023-06-19T09:12:06;8.88;;;6.35;;
44116;SDS011;29781;49.480;8.512;2023-06-19T09:17:03;6.63;;;5.93;;
44116;SDS011;29781;49.480;8.512;2023-06-19T09:19:30;6.70;;;5.57;;
44116;SDS011;29781;49.480;8.512;2023-06-19T09:22:03;8.27;;;5.60;;
44116;SDS011;29781;49.480;8.512;2023-06-19T09:24:37;9.02;;;5.85;;
44116;SDS011;29781;49.480;8.512;2023-06-19T09:27:11;8.57;;;5.93;;
44116;SDS011;29781;49.480;8.512;2023-06-19T09:29:41;7.15;;;5.70;;
44116;SDS011;29781;49.480;8.512;2023-06-19T09:32:17;8.50;;;6.28;;
44116;SDS011;29781;49.480;8.512;2023-06-19T09:34:44;6.60;;;6.00;;
44116;SDS011;29781;49.480;8.512;2023-06-19T09:37:11;11.15;;;5.80;;
44116;SDS011;29781;49.480;8.512;2023-06-19T09:39:37;7.03;;;6.07;;
44116;SDS011;29781;49.480;8.512;2023-06-19T09:42:13;6.60;;;6.00;;
44116;SDS011;29781;49.480;8.512;2023-06-19T09:44:41;8.02;;;5.90;;
44116;SDS011;29781;49.480;8.512;2023-06-19T09:47:15;11.98;;;6.20;;
44116;SDS011;29781;49.480;8.512;2023-06-19T09:49:53;6.30;;;5.80;;
44116;SDS011;29781;49.480;8.512;2023-06-19T09:52:20;6.20;;;5.70;;
44116;SDS011;29781;49.480;8.512;2023-06-19T09:54:52;5.97;;;5.47;;
44116;SDS011;29781;49.480;8.512;2023-06-19T09:57:19;7.07;;;6.03;;
44116;SDS011;29781;49.480;8.512;2023-06-19T09:59:49;8.50;;;6.13;;
44116;SDS011;29781;49.480;8.512;2023-06-19T10:02:18;6.68;;;5.70;;
44116;SDS011;29781;49.480;8.512;2023-06-19T10:04:48;6.15;;;5.55;;
44116;SDS011;29781;49.480;8.512;2023-06-19T10:07:16;7.90;;;5.65;;
44116;SDS011;29781;49.480;8.512;2023-06-19T10:09:54;7.32;;;5.78;;
44116;SDS011;29781;49.480;8.512;2023-06-19T10:12:43;7.78;;;5.82;;
44116;SDS011;29781;49.480;8.512;2023-06-19T10:20:23;9.07;;;5.30;;
44116;SDS011;29781;49.480;8.512;2023-06-19T10:23:01;5.65;;;5.25;;
44116;SDS011;29781;49.480;8.512;2023-06-19T10:25:31;6.85;;;5.82;;
44116;SDS011;29781;49.480;8.512;2023-06-19T10:28:01;6.53;;;5.90;;
44116;SDS011;29781;49.480;8.512;2023-06-19T10:30:30;8.05;;;5.55;;
44116;SDS011;29781;49.480;8.512;2023-06-19T10:32:56;8.02;;;6.00;;
44116;SDS011;29781;49.480;8.512;2023-06-19T10:35:22;7.25;;;6.00;;
44116;SDS011;29781;49.480;8.512;2023-06-19T10:37:49;7.97;;;5.78;;
44116;SDS011;29781;49.480;8.512;2023-06-19T10:40:15;6.30;;;5.70;;
44116;SDS011;29781;49.480;8.512;2023-06-19T10:42:41;6.45;;;5.85;;
44116;SDS011;29781;49.480;8.512;2023-06-19T10:45:08;6.18;;;5.78;;
44116;SDS011;29781;49.480;8.512;2023-06-19T10:47:41;6.05;;;5.57;;
44116;SDS011;29781;49.480;8.512;2023-06-19T10:50:10;6.05;;;5.55;;
44116;SDS011;29781;49.480;8.512;2023-06-19T10:52:39;6.63;;;5.13;;
44116;SDS011;29781;49.480;8.512;2023-06-19T10:55:06;6.40;;;5.15;;
44116;SDS011;29781;49.480;8.512;2023-06-19T10:57:32;5.97;;;5.28;;
44116;SDS011;29781;49.480;8.512;2023-06-19T10:59:58;7.05;;;5.20;;
44116;SDS011;29781;49.480;8.512;2023-06-19T11:02:24;6.38;;;5.70;;
44116;SDS011;29781;49.480;8.512;2023-06-19T11:04:53;6.15;;;5.55;;
44116;SDS011;29781;49.480;8.512;2023-06-19T11:07:24;7.55;;;5.70;;
44116;SDS011;29781;49.480;8.512;2023-06-19T11:09:50;6.45;;;4.95;;
44116;SDS011;29781;49.480;8.512;2023-06-19T11:12:19;6.25;;;4.60;;
44116;SDS011;29781;49.480;8.512;2023-06-19T11:14:46;4.70;;;4.30;;
44116;SDS011;29781;49.480;8.512;2023-06-19T11:17:12;4.78;;;4.25;;
44116;SDS011;29781;49.480;8.512;2023-06-19T11:19:38;4.85;;;4.50;;
44116;SDS011;29781;49.480;8.512;2023-06-19T11:22:06;4.57;;;4.18;;
44116;SDS011;29781;49.480;8.512;2023-06-19T11:24:32;5.88;;;4.38;;
44116;SDS011;29781;49.480;8.512;2023-06-19T11:26:58;8.73;;;4.22;;
44116;SDS011;29781;49.480;8.512;2023-06-19T11:29:25;4.32;;;4.03;;
44116;SDS011;29781;49.480;8.512;2023-06-19T11:32:03;5.05;;;4.50;;
44116;SDS011;29781;49.480;8.512;2023-06-19T11:34:31;8.40;;;4.18;;
44116;SDS011;29781;49.480;8.512;2023-06-19T11:36:58;4.35;;;4.05;;
44116;SDS011;29781;49.480;8.512;2023-06-19T11:39:23;13.88;;;4.20;;
44116;SDS011;29781;49.480;8.512;2023-06-19T11:41:49;6.88;;;3.95;;
44116;SDS011;29781;49.480;8.512;2023-06-19T11:44:16;6.85;;;4.20;;
44116;SDS011;29781;49.480;8.512;2023-06-19T11:46:41;5.07;;;4.55;;
44116;SDS011;29781;49.480;8.512;2023-06-19T11:49:15;6.78;;;5.40;;
44116;SDS011;29781;49.480;8.512;2023-06-19T11:51:44;6.18;;;5.50;;
44116;SDS011;29781;49.480;8.512;2023-06-19T11:54:10;6.00;;;5.50;;
44116;SDS011;29781;49.480;8.512;2023-06-19T11:56:37;5.53;;;5.03;;
44116;SDS011;29781;49.480;8.512;2023-06-19T11:59:04;6.15;;;5.18;;
44116;SDS011;29781;49.480;8.512;2023-06-19T12:01:33;5.10;;;4.70;;
44116;SDS011;29781;49.480;8.512;2023-06-19T12:04:00;5.10;;;4.60;;
44116;SDS011;29781;49.480;8.512;2023-06-19T12:06:26;7.85;;;4.90;;
44116;SDS011;29781;49.480;8.512;2023-06-19T12:08:52;6.75;;;5.25;;
44116;SDS011;29781;49.480;8.512;2023-06-19T12:11:18;5.20;;;4.70;;
44116;SDS011;29781;49.480;8.512;2023-06-19T12:13:43;5.28;;;4.80;;
44116;SDS011;29781;49.480;8.512;2023-06-19T12:16:10;5.55;;;5.05;;
44116;SDS011;29781;49.480;8.512;2023-06-19T12:18:36;6.53;;;5.03;;
44116;SDS011;29781;49.480;8.512;2023-06-19T12:21:02;6.95;;;5.07;;
44116;SDS011;29781;49.480;8.512;2023-06-19T12:23:27;5.20;;;4.75;;
44116;SDS011;29781;49.480;8.512;2023-06-19T12:25:53;5.50;;;4.95;;
44116;SDS011;29781;49.480;8.512;2023-06-19T12:28:18;6.55;;;4.55;;
44116;SDS011;29781;49.480;8.512;2023-06-19T12:30:44;4.82;;;4.43;;
44116;SDS011;29781;49.480;8.512;2023-06-19T12:33:13;5.70;;;5.20;;
44116;SDS011;29781;49.480;8.512;2023-06-19T12:35:39;5.30;;;4.75;;
44116;SDS011;29781;49.480;8.512;2023-06-19T12:38:09;5.28;;;4.70;;
44116;SDS011;29781;49.480;8.512;2023-06-19T12:40:35;5.50;;;5.05;;
44116;SDS011;29781;49.480;8.512;2023-06-19T12:43:02;5.43;;;4.90;;
44116;SDS011;29781;49.480;8.512;2023-06-19T12:45:28;7.30;;;4.93;;
44116;SDS011;29781;49.480;8.512;2023-06-19T12:47:53;4.82;;;4.43;;
44116;SDS011;29781;49.480;8.512;2023-06-19T12:50:19;5.40;;;4.22;;
44116;SDS011;29781;49.480;8.512;2023-06-19T12:52:44;5.85;;;4.47;;
44116;SDS011;29781;49.480;8.512;2023-06-19T12:55:10;5.38;;;4.30;;
44116;SDS011;29781;49.480;8.512;2023-06-19T12:57:35;5.15;;;4.75;;
44116;SDS011;29781;49.480;8.512;2023-06-19T13:00:02;4.72;;;4.30;;
44116;SDS011;29781;49.480;8.512;2023-06-19T13:02:31;6.47;;;4.57;;
44116;SDS011;29781;49.480;8.512;2023-06-19T13:04:57;13.15;;;4.57;;
44116;SDS011;29781;49.480;8.512;2023-06-19T13:07:23;6.85;;;4.45;;
44116;SDS011;29781;49.480;8.512;2023-06-19T13:09:48;4.95;;;4.55;;
44116;SDS011;29781;49.480;8.512;2023-06-19T13:12:14;4.45;;;4.05;;
44116;SDS011;29781;49.480;8.512;2023-06-19T13:14:39;4.53;;;4.20;;
44116;SDS011;29781;49.480;8.512;2023-06-19T13:17:05;4.80;;;4.28;;
44116;SDS011;29781;49.480;8.512;2023-06-19T13:19:31;5.10;;;4.60;;
44116;SDS011;29781;49.480;8.512;2023-06-19T13:21:57;4.93;;;4.38;;
44116;SDS011;29781;49.480;8.512;2023-06-19T13:24:22;6.18;;;4.28;;
44116;SDS011;29781;49.480;8.512;2023-06-19T13:26:48;5.97;;;4.53;;
44116;SDS011;29781;49.480;8.512;2023-06-19T13:29:14;6.65;;;4.22;;
44116;SDS011;29781;49.480;8.512;2023-06-19T13:31:40;4.80;;;4.40;;
44116;SDS011;29781;49.480;8.512;2023-06-19T13:34:05;6.50;;;4.60;;
44116;SDS011;29781;49.480;8.512;2023-06-19T13:36:31;4.90;;;4.50;;
44116;SDS011;29781;49.480;8.512;2023-06-19T13:38:57;4.43;;;4.13;;
44116;SDS011;29781;49.480;8.512;2023-06-19T13:41:22;5.18;;;4.63;;
44116;SDS011;29781;49.480;8.512;2023-06-19T13:43:51;4.70;;;4.30;;
44116;SDS011;29781;49.480;8.512;2023-06-19T13:46:18;4.88;;;4.47;;
44116;SDS011;29781;49.480;8.512;2023-06-19T13:48:44;6.20;;;4.55;;
44116;SDS011;29781;49.480;8.512;2023-06-19T13:51:13;5.10;;;4.63;;
44116;SDS011;29781;49.480;8.512;2023-06-19T13:53:39;7.22;;;4.80;;
44116;SDS011;29781;49.480;8.512;2023-06-19T13:56:04;6.80;;;4.78;;
44116;SDS011;29781;49.480;8.512;2023-06-19T13:58:30;5.18;;;4.60;;
44116;SDS011;29781;49.480;8.512;2023-06-19T14:00:56;4.70;;;4.40;;
44116;SDS011;29781;49.480;8.512;2023-06-19T14:03:22;6.07;;;4.88;;
44116;SDS011;29781;49.480;8.512;2023-06-19T14:05:49;7.53;;;4.38;;
44116;SDS011;29781;49.480;8.512;2023-06-19T14:08:14;8.38;;;5.38;;
44116;SDS011;29781;49.480;8.512;2023-06-19T14:10:40;5.30;;;4.80;;
44116;SDS011;29781;49.480;8.512;2023-06-19T14:13:06;7.40;;;5.03;;
44116;SDS011;29781;49.480;8.512;2023-06-19T14:15:31;5.65;;;4.60;;
44116;SDS011;29781;49.480;8.512;2023-06-19T14:17:57;5.10;;;4.70;;
44116;SDS011;29781;49.480;8.512;2023-06-19T14:20:22;5.07;;;4.60;;
44116;SDS011;29781;49.480;8.512;2023-06-19T14:22:48;5.38;;;4.60;;
44116;SDS011;29781;49.480;8.512;2023-06-19T14:25:13;6.70;;;4.82;;
44116;SDS011;29781;49.480;8.512;2023-06-19T14:27:39;5.20;;;4.63;;
44116;SDS011;29781;49.480;8.512;2023-06-19T14:30:08;6.40;;;4.68;;
44116;SDS011;29781;49.480;8.512;2023-06-19T14:32:37;4.63;;;4.20;;
44116;SDS011;29781;49.480;8.512;2023-06-19T14:35:03;5.40;;;4.90;;
44116;SDS011;29781;49.480;8.512;2023-06-19T14:37:30;5.28;;;4.78;;
44116;SDS011;29781;49.480;8.512;2023-06-19T14:39:55;7.30;;;4.75;;
44116;SDS011;29781;49.480;8.512;2023-06-19T14:42:21;5.55;;;4.97;;
44116;SDS011;29781;49.480;8.512;2023-06-19T14:44:47;5.30;;;4.90;;
44116;SDS011;29781;49.480;8.512;2023-06-19T14:47:12;5.65;;;5.18;;
44116;SDS011;29781;49.480;8.512;2023-06-19T14:49:38;5.35;;;4.95;;
44116;SDS011;29781;49.480;8.512;2023-06-19T14:52:04;5.05;;;4.28;;